Flight Track Log - Related Links

Times and Time Zones

All times are in EDT time to prevent confusion due to time zone crossing. See the AAL1242 flight status page for this flight to view local times or setup timezone preferences in your user account.

Time Position Orientation Groundspeed Altitude Reporting Facility
EDT Latitude Longitude Course Direction KTS MPH feet Rate Location/Type
Fri 05:06:01 PM 39.8833 -104.7500 169° South 239 275 8,100  Level Denver TRACON
Fri 05:07:00 PM 39.6761 -104.3744 205° Southwest  Level FlightAware Approximate
Fri 05:07:07 PM 39.8500 -104.8333 243° Southwest 276 318 10,400  Level Denver TRACON
Fri 05:08:00 PM 39.5714 -104.4465 210° Southwest  Level FlightAware Approximate
Fri 05:08:07 PM 39.8000 -104.9333 237° Southwest 318 366 12,000  Level Denver TRACON
Fri 05:09:00 PM 39.4621 -104.5000 180° South  Level FlightAware Approximate
Fri 05:09:07 PM 39.7167 -104.9333 180° South 348 400 14,100  Level Denver TRACON
Fri 05:10:00 PM 39.3434 -104.5000 180° South  Level FlightAware Approximate
Fri 05:10:15 PM 39.6244 -104.8475 144° Southeast 366 421 16,600  Level Denver Center
Fri 05:11:00 PM 39.2310 -104.4744 169° South  Level FlightAware Approximate
Fri 05:11:17 PM 39.5361 -104.7761 148° Southeast 372 428 18,400  Level Denver Center
Fri 05:12:19 PM 39.4447 -104.7039 149° Southeast 387 445 20,300 1,839 Climbing Denver Center
Fri 05:13:21 PM 39.3411 -104.6231 149° Southeast 403 464 22,200 1,742 Climbing Denver Center
Fri 05:14:23 PM 39.2403 -104.5456 149° Southeast 422 486 23,900 1,756 Climbing Denver Center
Fri 05:15:24 PM 39.1375 -104.4450 143° Southeast 422 486 25,800 1,512 Climbing Denver Center
Fri 05:16:26 PM 39.0256 -104.3800 156° South 434 499 27,000 1,258 Climbing Denver Center
Fri 05:17:28 PM 38.9133 -104.3042 152° Southeast 449 517 28,400 1,210 Climbing Denver Center
Fri 05:18:30 PM 38.7997 -104.2183 150° Southeast 468 539 29,500 1,258 Climbing Denver Center
Fri 05:19:32 PM 38.6847 -104.1364 151° Southeast 469 540 31,000 1,122 Climbing Denver Center
Fri 05:20:33 PM 38.5725 -104.0533 150° Southeast 466 536 31,800 976 Climbing Denver Center
Fri 05:21:35 PM 38.4461 -103.9642 151° Southeast 464 534 33,000 581 Climbing Denver Center
Fri 05:22:37 PM 38.3383 -103.8867 151° Southeast 463 533 33,000  Level Denver Center
Fri 05:23:39 PM 38.2117 -103.7958 151° Southeast 465 535 33,000  Level Denver Center
Fri 05:24:40 PM 38.1217 -103.7303 150° Southeast 466 536 33,000  Level Denver Center
Fri 05:25:42 PM 38.0025 -103.6231 145° Southeast 470 541 33,000  Level Denver Center
Fri 05:26:44 PM 37.8914 -103.5042 140° Southeast 467 537 33,000  Level Denver Center
Fri 05:27:46 PM 37.7953 -103.4017 140° Southeast 468 539 33,000  Level Denver Center
Fri 05:28:48 PM 37.6808 -103.2833 141° Southeast 471 542 33,000  Level Denver Center
Fri 05:29:50 PM 37.5858 -103.1822 140° Southeast 466 536 33,000  Level Denver Center
Fri 05:30:52 PM 37.4886 -103.0808 140° Southeast 470 541 33,000  Level Denver Center
Fri 05:31:54 PM 37.3744 -102.9603 140° Southeast 475 547 33,000  Level Denver Center
Fri 05:32:24 PM 37.3364 -102.8978 127° Southeast 482 555 33,000  Level Albuquerque Center
Fri 05:33:26 PM 37.2553 -102.7731 129° Southeast 481 554 33,000  Level Albuquerque Center
Fri 05:34:28 PM 37.1550 -102.6319 132° Southeast 482 555 33,000  Level Albuquerque Center
Fri 05:35:30 PM 37.0636 -102.5000 131° Southeast 480 552 33,000  Level Albuquerque Center
Fri 05:36:32 PM 36.9783 -102.3792 131° Southeast 483 556 33,000  Level Albuquerque Center
Fri 05:37:34 PM 36.8783 -102.2369 131° Southeast 487 560 33,000  Level Albuquerque Center
Fri 05:38:36 PM 36.7908 -102.1142 132° Southeast 493 567 33,000  Level Albuquerque Center
Fri 05:39:39 PM 36.6914 -101.9767 132° Southeast 484 557 33,000  Level Albuquerque Center
Fri 05:40:40 PM 36.6072 -101.8575 131° Southeast 480 552 33,000  Level Albuquerque Center
Fri 05:41:42 PM 36.5125 -101.7267 132° Southeast 482 555 33,000  Level Albuquerque Center
Fri 05:42:44 PM 36.4239 -101.6036 132° Southeast 479 551 33,000  Level Albuquerque Center
Fri 05:43:46 PM 36.3225 -101.4625 132° Southeast 484 557 33,000  Level Albuquerque Center
Fri 05:44:48 PM 36.2436 -101.3547 132° Southeast 483 556 33,000  Level Albuquerque Center
Fri 05:45:50 PM 36.1442 -101.2172 132° Southeast 483 556 33,000  Level Albuquerque Center
Fri 05:46:52 PM 36.0522 -101.0922 132° Southeast 488 562 33,000  Level Albuquerque Center
Fri 05:47:54 PM 35.9522 -100.9561 132° Southeast 487 560 33,000  Level Albuquerque Center
Fri 05:48:56 PM 35.8689 -100.8411 132° Southeast 492 566 33,000  Level Albuquerque Center
Fri 05:49:58 PM 35.7575 -100.6931 133° Southeast 493 567 33,000  Level Albuquerque Center
Fri 05:51:00 PM 35.6667 -100.5689 132° Southeast 490 564 33,000  Level Albuquerque Center
Fri 05:52:02 PM 35.5739 -100.4444 132° Southeast 492 566 33,000  Level Albuquerque Center
Fri 05:53:04 PM 35.4808 -100.3192 132° Southeast 494 568 33,000  Level Albuquerque Center
Fri 05:54:06 PM 35.3864 -100.1939 133° Southeast 498 573 33,000  Level Albuquerque Center
Fri 05:55:08 PM 35.2928 -100.0703 133° Southeast 497 572 33,000  Level Albuquerque Center
Fri 05:56:10 PM 35.1803 -99.9225 133° Southeast 496 571 33,000  Level Albuquerque Center
Fri 05:57:12 PM 35.0861 -99.7975 133° Southeast 497 572 33,000  Level Albuquerque Center
Fri 05:58:14 PM 34.9925 -99.6742 133° Southeast 497 572 33,000  Level Albuquerque Center
Fri 05:59:16 PM 34.8986 -99.5519 133° Southeast 496 571 33,000  Level Albuquerque Center
Fri 05:59:32 PM 34.8733 -99.5192 133° Southeast 492 566 33,000  Level Fort Worth Center
Fri 06:00:32 PM 34.7792 -99.4006 134° Southeast 487 560 33,000  Level Fort Worth Center
Fri 06:01:32 PM 34.6853 -99.2797 133° Southeast 487 560 33,000  Level Fort Worth Center
Fri 06:02:32 PM 34.5908 -99.1567 133° Southeast 487 560 33,000  Level Fort Worth Center
Fri 06:03:32 PM 34.4883 -99.0286 134° Southeast 482 555 33,000  Level Fort Worth Center
Fri 06:04:32 PM 34.3981 -98.9136 134° Southeast 482 555 33,000 -150 Level Fort Worth Center
Fri 06:05:32 PM 34.3033 -98.7936 134° Southeast 482 555 32,700 -1,450 Descending Fort Worth Center
Fri 06:06:32 PM 34.2108 -98.6742 133° Southeast 487 560 30,100 -2,900 Descending Fort Worth Center
Fri 06:07:32 PM 34.1158 -98.5550 134° Southeast 487 560 26,900 -2,950 Descending Fort Worth Center
Fri 06:08:32 PM 34.0253 -98.4333 132° Southeast 496 571 24,200 -2,000 Descending Fort Worth Center
Fri 06:09:32 PM 33.9322 -98.3197 135° Southeast 478 550 22,900 -1,750 Descending Fort Worth Center
Fri 06:10:32 PM 33.8536 -98.2189 133° Southeast 471 542 20,700 -2,250 Descending Fort Worth Center
Fri 06:11:32 PM 33.7644 -98.1081 134° Southeast 459 528 18,400 -2,200 Descending Fort Worth Center
Fri 06:12:32 PM 33.6836 -98.0075 134° Southeast 430 495 16,300 -1,950 Descending Fort Worth Center
Fri 06:13:32 PM 33.6047 -97.9097 134° Southeast 417 480 14,500 -1,950 Descending Fort Worth Center
Fri 06:14:32 PM 33.5236 -97.8097 134° Southeast 407 468 12,400 -1,850 Descending Fort Worth Center
Fri 06:15:32 PM 33.4425 -97.7147 136° Southeast 385 443 10,800 -1,050 Descending Fort Worth Center
Fri 06:16:32 PM 33.3822 -97.6447 136° Southeast 351 404 10,300 -950 Descending Fort Worth Center
Fri 06:17:32 PM 33.3239 -97.5725 134° Southeast 311 358 8,900 -1,550 Descending Fort Worth Center
Fri 06:18:32 PM 33.2822 -97.4756 117° Southeast 296 341 7,200 -1,350 Descending Fort Worth Center
Fri 06:19:32 PM 33.2572 -97.3986 111° Southeast 285 328 6,200 -1,100 Descending Fort Worth Center
Fri 06:20:32 PM 33.2278 -97.3092 111° Southeast 269 310 5,000 -600 Descending Fort Worth Center
Fri 06:21:32 PM 33.2028 -97.2372 113° Southeast 264 304 5,000 -700 Level Fort Worth Center
Fri 06:22:32 PM 33.1547 -97.1628 128° Southeast 258 297 3,600 -1,000 Descending Fort Worth Center
Fri 06:23:32 PM 33.1086 -97.1008 132° Southeast 253 291 3,000 -600 Descending Fort Worth Center

Login

Don't have an account? Register now (free) for customized features, flight alerts, and more!